Sydney Airport

Airport
ICAO code: 
YSSY
IATA Code: 
SYD
Summary
ICAO Region: 
APAC
Territory: 
Location: 
Mascot, New South Wales
Serving: 
Sydney
Elevation: 
21 ft
Coordinates: 
Aerial View: 
33° 56' 23.368" S, 151° 10' 31.934" E
Airport BS: 
Bird Strike
Metar
Observation
YSSY 180730Z 17017KT 8000 -RA BKN006 BKN012 OVC015 21/21 Q1012
Station
Sydney Airport
Date/Time
2022-01-18 07:30:00
Wind direction
170°
Wind speed
17 kts
Lowest cloud amount
broken clouds
Temperature
21°C
Dew point
21°C
Humidity
100%
QNH
1012 hPa
Weather condition
n/a

International airport serving Sydney, Australia.

Climatology

Temperate Marine climate/Oceanic climate (Köppen climate classification Cfb). Moderately cool summer and comparatively warm winter

Runways

Designator Length Width Surface Rops
16L/34R 2438 45 ASP Yes/Yes
7/25 2530 45 ASP Yes/Yes
16R/34L 3962 45 ASP Yes/Yes

SKYbrary Partners:

Safety knowledge contributed by: